createdAt,value
2023-02-15T00:01:37.267Z,79.30
2023-02-15T00:04:07.165Z,77.89
2023-02-15T00:06:34.319Z,78.05
2023-02-15T00:09:01.045Z,77.28
2023-02-15T00:11:51.154Z,76.33
2023-02-15T00:14:22.157Z,76.63
2023-02-15T00:16:53.134Z,78.62
2023-02-15T00:19:20.919Z,78.82
2023-02-15T00:21:47.933Z,77.03
2023-02-15T00:24:15.917Z,75.85
2023-02-15T00:26:43.392Z,73.06
2023-02-15T00:29:10.951Z,74.32
2023-02-15T00:31:37.821Z,75.54
2023-02-15T00:34:14.966Z,76.73
2023-02-15T00:36:43.775Z,76.80
2023-02-15T00:39:10.669Z,77.04
2023-02-15T00:41:37.452Z,79.25
2023-02-15T00:44:04.366Z,78.78
2023-02-15T00:46:31.283Z,78.39
2023-02-15T00:48:57.889Z,76.35
2023-02-15T00:51:24.870Z,76.59
2023-02-15T00:53:51.612Z,77.97
2023-02-15T00:56:18.230Z,80.35
2023-02-15T00:58:45.504Z,77.83
2023-02-15T01:01:15.696Z,77.50
2023-02-15T01:03:46.969Z,78.19
2023-02-15T01:06:14.273Z,79.34
2023-02-15T01:08:43.242Z,76.81
2023-02-15T01:11:23.025Z,77.13
2023-02-15T01:13:51.874Z,74.54
2023-02-15T01:16:18.618Z,73.63
2023-02-15T01:18:45.274Z,74.22
2023-02-15T01:21:15.972Z,74.04
2023-02-15T01:23:44.438Z,74.78
2023-02-15T01:26:13.493Z,73.41
2023-02-15T01:28:40.236Z,73.26
2023-02-15T01:31:08.579Z,73.33
2023-02-15T01:33:36.173Z,75.55
2023-02-15T01:36:04.025Z,74.41
2023-02-15T01:38:32.650Z,76.03
2023-02-15T01:41:19.883Z,77.10
2023-02-15T01:43:51.373Z,77.29
2023-02-15T01:46:20.548Z,75.01
2023-02-15T01:48:55.663Z,72.64
2023-02-15T01:51:24.667Z,75.25
2023-02-15T01:54:03.844Z,74.07
2023-02-15T01:56:35.027Z,73.19
2023-02-15T01:59:05.730Z,72.68
2023-02-15T02:01:34.841Z,74.60
2023-02-15T02:04:05.852Z,74.49
2023-02-15T02:06:33.650Z,72.32
2023-02-15T02:09:01.267Z,72.23
2023-02-15T02:11:28.993Z,72.95
2023-02-15T02:13:56.272Z,73.01
2023-02-15T02:16:48.721Z,73.95
2023-02-15T02:19:30.680Z,75.77
2023-02-15T02:22:01.618Z,75.60
2023-02-15T02:24:28.186Z,74.67
2023-02-15T02:26:57.130Z,73.15
2023-02-15T02:29:34.095Z,71.52
2023-02-15T02:32:29.447Z,70.94
2023-02-15T02:35:04.718Z,71.14
2023-02-15T02:37:31.490Z,71.17
2023-02-15T02:40:04.833Z,71.73
2023-02-15T02:43:04.016Z,72.65
2023-02-15T02:45:36.153Z,72.70
2023-02-15T02:48:18.365Z,72.25
2023-02-15T02:50:48.136Z,71.76
2023-02-15T02:53:19.856Z,72.71
2023-02-15T02:55:54.931Z,74.88
2023-02-15T02:58:24.938Z,73.74
2023-02-15T03:01:02.617Z,73.67
2023-02-15T03:03:42.041Z,75.17
2023-02-15T03:06:13.970Z,75.67
2023-02-15T03:08:46.439Z,74.67
2023-02-15T03:11:13.224Z,73.81
2023-02-15T03:13:44.053Z,75.44
2023-02-15T03:16:29.991Z,76.33
2023-02-15T03:19:02.630Z,75.66
2023-02-15T03:21:58.602Z,75.23
2023-02-15T03:24:29.879Z,78.91
2023-02-15T03:26:57.222Z,74.69
2023-02-15T03:29:29.095Z,73.86
2023-02-15T03:31:59.618Z,74.46
2023-02-15T03:34:29.018Z,74.31
2023-02-15T03:37:14.446Z,71.71
2023-02-15T03:39:54.933Z,72.34
2023-02-15T03:42:30.427Z,73.21
2023-02-15T03:44:57.043Z,71.91
2023-02-15T03:47:28.965Z,72.23
2023-02-15T03:50:01.416Z,72.41
2023-02-15T03:52:29.186Z,73.12
2023-02-15T03:54:56.003Z,73.60
2023-02-15T03:57:45.998Z,73.60
2023-02-15T04:00:31.456Z,74.85
2023-02-15T04:03:03.486Z,72.78
2023-02-15T04:05:30.153Z,73.52
2023-02-15T04:07:56.672Z,73.94
2023-02-15T04:10:42.151Z,73.43
2023-02-15T04:13:08.720Z,73.81
2023-02-15T04:15:53.763Z,74.42
2023-02-15T04:18:41.996Z,73.65
2023-02-15T04:21:29.405Z,72.79
2023-02-15T04:24:17.778Z,73.41
2023-02-15T04:26:44.388Z,73.08
2023-02-15T04:29:10.894Z,74.61
2023-02-15T04:31:37.583Z,76.44
2023-02-15T04:34:04.279Z,73.50
2023-02-15T04:36:32.020Z,73.41
2023-02-15T04:38:58.707Z,74.20
2023-02-15T04:41:25.361Z,73.15
2023-02-15T04:43:54.461Z,73.55
2023-02-15T04:46:21.208Z,72.64
2023-02-15T04:48:49.368Z,72.16
2023-02-15T04:51:15.975Z,73.18
2023-02-15T04:53:42.538Z,73.22
2023-02-15T04:56:09.198Z,71.99
2023-02-15T04:58:36.391Z,72.52
2023-02-15T05:01:03.029Z,72.45
2023-02-15T05:03:32.695Z,73.13
2023-02-15T05:05:59.443Z,72.82
2023-02-15T05:08:26.144Z,73.20
2023-02-15T05:10:52.792Z,72.99
2023-02-15T05:13:19.340Z,74.13
2023-02-15T05:15:50.078Z,73.63
2023-02-15T05:18:17.183Z,73.44
2023-02-15T05:20:43.891Z,73.56
2023-02-15T05:23:10.701Z,76.81
2023-02-15T05:25:55.877Z,76.44
2023-02-15T05:28:23.239Z,75.22
2023-02-15T05:30:51.192Z,74.02
2023-02-15T05:33:18.169Z,76.18
2023-02-15T05:35:44.750Z,76.29
2023-02-15T05:38:11.347Z,76.58
2023-02-15T05:40:37.961Z,77.99
2023-02-15T05:43:04.595Z,77.61
2023-02-15T05:45:31.140Z,77.76
2023-02-15T05:47:59.355Z,77.64
2023-02-15T05:50:26.397Z,77.47
2023-02-15T05:52:53.102Z,79.19
2023-02-15T05:55:22.094Z,80.22
2023-02-15T05:57:49.515Z,78.53
2023-02-15T06:00:16.276Z,77.82
2023-02-15T06:02:43.081Z,77.57
2023-02-15T06:05:10.219Z,76.71
2023-02-15T06:07:36.918Z,75.59
2023-02-15T06:10:04.020Z,75.57
2023-02-15T06:12:30.828Z,73.95
2023-02-15T06:14:57.359Z,73.40
2023-02-15T06:17:23.957Z,72.38
2023-02-15T06:19:50.474Z,72.43
2023-02-15T06:22:17.085Z,72.01
2023-02-15T06:24:43.731Z,73.75
2023-02-15T06:27:11.062Z,72.79
2023-02-15T06:29:37.584Z,73.27
2023-02-15T06:32:04.443Z,73.03
2023-02-15T06:34:31.226Z,73.09
2023-02-15T06:37:00.684Z,73.33
2023-02-15T06:39:29.665Z,76.68
2023-02-15T06:41:56.416Z,77.53
2023-02-15T06:44:23.022Z,76.90
2023-02-15T06:46:49.700Z,75.49
2023-02-15T06:49:16.454Z,75.58
2023-02-15T06:51:43.107Z,75.99
2023-02-15T06:54:09.640Z,75.89
2023-02-15T06:56:38.044Z,75.35
2023-02-15T06:59:04.624Z,74.14
2023-02-15T07:04:11.688Z,76.15
2023-02-15T07:06:38.424Z,75.13
2023-02-15T07:09:16.720Z,74.47
2023-02-15T07:12:02.013Z,76.17
2023-02-15T07:14:29.095Z,75.59
2023-02-15T07:16:58.284Z,74.27
2023-02-15T07:19:24.964Z,73.73
2023-02-15T07:21:53.789Z,72.84
2023-02-15T07:24:20.400Z,71.92
2023-02-15T07:26:49.829Z,71.79
2023-02-15T07:29:16.905Z,74.39
2023-02-15T07:31:46.268Z,75.27
2023-02-15T07:34:13.052Z,75.15
2023-02-15T07:36:39.640Z,74.29
2023-02-15T07:39:06.265Z,74.65
2023-02-15T07:41:32.827Z,72.50
2023-02-15T07:44:01.696Z,73.13
2023-02-15T07:46:28.987Z,74.88
2023-02-15T07:48:55.595Z,75.34
2023-02-15T07:51:22.129Z,72.39
2023-02-15T07:53:48.749Z,69.70
2023-02-15T07:56:16.063Z,70.57
2023-02-15T07:58:52.885Z,67.01
2023-02-15T08:01:20.659Z,64.53
2023-02-15T08:03:49.823Z,62.23
2023-02-15T08:06:18.866Z,58.55
2023-02-15T08:08:45.513Z,56.14
2023-02-15T08:11:31.405Z,51.00
2023-02-15T08:14:08.030Z,50.70
2023-02-15T08:16:36.065Z,48.71
2023-02-15T08:19:08.928Z,49.33
2023-02-15T08:21:37.387Z,48.11
2023-02-15T08:24:04.102Z,46.68
2023-02-15T08:26:31.274Z,47.10
2023-02-15T08:28:59.912Z,48.62
2023-02-15T08:31:26.769Z,53.92
2023-02-15T08:33:54.495Z,55.37
2023-02-15T08:36:22.734Z,56.84
2023-02-15T08:38:49.646Z,60.92
2023-02-15T08:41:17.993Z,63.46
2023-02-15T08:43:44.537Z,63.61
2023-02-15T08:46:11.594Z,65.45
2023-02-15T08:48:38.408Z,69.09
2023-02-15T08:51:09.298Z,69.14
2023-02-15T08:53:36.102Z,70.29
2023-02-15T08:56:02.726Z,70.28
2023-02-15T08:58:31.748Z,68.60
2023-02-15T09:00:59.010Z,67.77
2023-02-15T09:03:25.878Z,70.68
2023-02-15T09:05:57.419Z,72.46
2023-02-15T09:08:32.830Z,71.78
2023-02-15T09:11:13.472Z,71.77
2023-02-15T09:13:43.051Z,72.82
2023-02-15T09:16:10.433Z,73.73
2023-02-15T09:18:38.726Z,72.95
2023-02-15T09:21:09.471Z,73.63
2023-02-15T09:23:37.414Z,73.78
2023-02-15T09:26:07.306Z,72.79
2023-02-15T09:28:34.000Z,72.02
2023-02-15T09:31:12.025Z,72.22
2023-02-15T09:33:42.795Z,72.05
2023-02-15T09:36:16.907Z,73.81
2023-02-15T09:38:46.013Z,72.77
2023-02-15T09:41:21.779Z,72.07
2023-02-15T09:44:07.162Z,73.51
2023-02-15T09:46:50.552Z,72.56
2023-02-15T09:49:28.547Z,71.10
2023-02-15T09:52:07.382Z,63.04
2023-02-15T09:54:55.423Z,58.95
2023-02-15T09:57:37.404Z,58.04
2023-02-15T10:00:25.140Z,56.57
2023-02-15T10:02:51.765Z,56.50
2023-02-15T10:05:30.636Z,55.67
2023-02-15T10:08:02.984Z,56.49
2023-02-15T10:10:44.500Z,57.02
2023-02-15T10:13:22.568Z,59.42
2023-02-15T10:15:53.016Z,58.05
2023-02-15T10:18:22.774Z,58.72
2023-02-15T10:20:54.797Z,58.27
2023-02-15T10:23:30.486Z,58.38
2023-02-15T10:26:03.382Z,58.87
2023-02-15T10:28:35.073Z,56.44
2023-02-15T10:31:14.197Z,55.90
2023-02-15T10:33:41.821Z,55.55
2023-02-15T10:36:27.136Z,56.37
2023-02-15T10:39:00.078Z,53.38
2023-02-15T10:41:26.611Z,54.02
2023-02-15T10:44:25.616Z,50.26
2023-02-15T10:47:00.784Z,50.37
2023-02-15T10:49:37.363Z,49.79
2023-02-15T10:52:09.969Z,49.38
2023-02-15T10:54:45.694Z,50.07
2023-02-15T10:57:19.277Z,46.76
2023-02-15T10:59:52.475Z,45.11
2023-02-15T11:02:25.358Z,42.78
2023-02-15T11:04:59.564Z,43.82
2023-02-15T11:07:34.207Z,42.23
2023-02-15T11:10:08.729Z,39.97
2023-02-15T11:12:35.486Z,40.35
2023-02-15T11:15:05.432Z,39.25
2023-02-15T11:17:36.734Z,39.42
2023-02-15T11:20:21.664Z,41.06
2023-02-15T11:22:54.314Z,39.95
2023-02-15T11:25:25.315Z,39.82
2023-02-15T11:27:57.619Z,40.31
2023-02-15T11:30:26.408Z,39.31
2023-02-15T11:33:00.202Z,38.70
2023-02-15T11:35:33.371Z,35.60
2023-02-15T11:37:59.993Z,34.66
2023-02-15T11:40:37.365Z,34.72
2023-02-15T11:43:12.621Z,35.14
2023-02-15T11:45:40.972Z,34.77
2023-02-15T11:48:12.278Z,34.61
2023-02-15T11:50:39.492Z,33.38
2023-02-15T11:53:10.528Z,34.86
2023-02-15T11:55:37.788Z,34.42
2023-02-15T11:58:22.544Z,36.12
2023-02-15T12:00:51.609Z,35.45
2023-02-15T12:03:33.565Z,36.52
2023-02-15T12:06:03.473Z,37.62
2023-02-15T12:08:51.598Z,36.54
2023-02-15T12:11:21.054Z,37.60
2023-02-15T12:13:58.458Z,37.68
2023-02-15T12:16:27.908Z,37.22
2023-02-15T12:18:56.214Z,39.44
2023-02-15T12:21:28.971Z,39.52
2023-02-15T12:23:58.616Z,39.07
2023-02-15T12:26:26.671Z,38.06
2023-02-15T12:28:55.489Z,38.80
2023-02-15T12:31:27.845Z,39.11
2023-02-15T12:33:56.206Z,36.97
2023-02-15T12:36:25.031Z,38.03
2023-02-15T12:39:10.475Z,35.80
2023-02-15T12:41:37.745Z,37.28
2023-02-15T12:44:16.148Z,38.27
2023-02-15T12:46:57.105Z,36.38
2023-02-15T12:49:23.879Z,37.63
2023-02-15T12:52:01.085Z,36.70
2023-02-15T12:54:33.156Z,37.25
2023-02-15T12:57:00.357Z,39.76
2023-02-15T12:59:27.098Z,39.12
2023-02-15T13:01:56.819Z,38.94
2023-02-15T13:04:23.341Z,39.58
2023-02-15T13:06:54.055Z,39.29
2023-02-15T13:09:20.786Z,41.15
2023-02-15T13:11:47.782Z,41.70
2023-02-15T13:14:33.374Z,42.43
2023-02-15T13:17:02.092Z,42.27
2023-02-15T13:20:00.678Z,44.00
2023-02-15T13:22:36.578Z,44.46
2023-02-15T13:25:18.690Z,43.11
2023-02-15T13:27:48.380Z,42.92
2023-02-15T13:30:23.199Z,42.41
2023-02-15T13:32:52.498Z,42.99
2023-02-15T13:35:20.088Z,40.97
2023-02-15T13:37:49.826Z,39.70
2023-02-15T13:40:25.694Z,36.24
2023-02-15T13:43:15.555Z,37.17
2023-02-15T13:45:52.195Z,35.62
2023-02-15T14:00:26.939Z,32.49
2023-02-15T14:03:07.437Z,32.82
2023-02-15T15:20:41.899Z,42.33
2023-02-15T15:23:22.913Z,42.63
2023-02-15T15:25:49.602Z,43.42
2023-02-15T15:28:35.416Z,43.69
2023-02-15T15:31:02.617Z,44.71
2023-02-15T15:33:47.825Z,43.89
2023-02-15T15:36:24.167Z,44.16
2023-02-15T15:39:18.280Z,44.07
2023-02-15T15:42:03.893Z,44.50
2023-02-15T15:44:33.231Z,44.58
2023-02-15T15:47:04.430Z,45.34
2023-02-15T15:49:32.610Z,46.34
2023-02-15T15:52:01.678Z,47.43
2023-02-15T15:54:31.662Z,46.94
2023-02-15T15:57:12.323Z,46.96
2023-02-15T15:59:44.634Z,47.89
2023-02-15T16:02:16.939Z,48.35
2023-02-15T16:04:44.330Z,48.41
2023-02-15T16:07:19.626Z,48.66
2023-02-15T16:09:58.878Z,48.62
2023-02-15T16:12:26.858Z,48.81
2023-02-15T16:14:54.572Z,49.24
2023-02-15T16:17:32.607Z,50.10
2023-02-15T16:20:15.505Z,50.42
2023-02-15T16:22:42.161Z,50.20
2023-02-15T16:25:17.905Z,50.00
2023-02-15T16:27:46.577Z,51.12
2023-02-15T16:30:32.741Z,52.53
2023-02-15T16:33:19.255Z,53.21
2023-02-15T16:35:55.044Z,54.00
2023-02-15T16:38:40.303Z,56.95
2023-02-15T16:41:07.029Z,59.16
2023-02-15T16:43:35.817Z,61.73
2023-02-15T16:46:06.944Z,61.44
2023-02-15T16:48:36.162Z,60.83
2023-02-15T16:51:03.105Z,60.53
2023-02-15T16:53:32.918Z,60.53
2023-02-15T16:56:00.985Z,60.48
2023-02-15T16:58:41.636Z,60.30
2023-02-15T17:01:10.437Z,62.32
2023-02-15T17:03:39.889Z,63.33
2023-02-15T17:06:19.394Z,62.55
2023-02-15T17:08:46.200Z,64.42
2023-02-15T17:11:22.849Z,63.68
2023-02-15T17:14:04.694Z,64.31
2023-02-15T17:16:51.616Z,63.06
2023-02-15T17:19:27.445Z,64.42
2023-02-15T17:21:56.086Z,64.08
2023-02-15T17:24:43.074Z,65.29
2023-02-15T17:27:18.344Z,64.00
2023-02-15T17:29:46.946Z,65.37
2023-02-15T17:32:19.602Z,65.86
2023-02-15T17:34:46.297Z,65.07
2023-02-15T17:37:13.815Z,66.25
2023-02-15T17:39:41.583Z,66.28
2023-02-15T17:42:19.440Z,67.33
2023-02-15T17:44:46.144Z,67.29
2023-02-15T17:47:16.115Z,66.38
2023-02-15T17:49:46.822Z,66.21
2023-02-15T17:52:16.876Z,66.49
2023-02-15T17:55:03.686Z,66.81
2023-02-15T17:57:31.213Z,65.51
2023-02-15T18:00:16.620Z,64.74
2023-02-15T18:03:06.386Z,64.33
2023-02-15T18:05:52.997Z,67.73
2023-02-15T18:08:42.058Z,66.60
2023-02-15T18:11:29.026Z,65.50
2023-02-15T18:13:58.048Z,64.97
2023-02-15T18:16:26.678Z,65.32
2023-02-15T18:18:56.135Z,65.27
2023-02-15T18:21:24.166Z,65.36
2023-02-15T18:23:50.950Z,65.75
2023-02-15T18:26:19.979Z,64.44
2023-02-15T18:28:48.016Z,65.86
2023-02-15T18:31:15.059Z,66.06
2023-02-15T18:33:47.008Z,65.40
2023-02-15T18:36:17.422Z,65.32
2023-02-15T18:38:44.405Z,66.66
2023-02-15T18:41:16.234Z,65.78
2023-02-15T18:43:43.291Z,66.37
2023-02-15T18:46:10.118Z,64.29
2023-02-15T18:48:40.015Z,65.24
2023-02-15T18:51:15.529Z,64.92
2023-02-15T18:53:42.319Z,66.33
2023-02-15T18:56:14.746Z,67.19
2023-02-15T18:58:43.079Z,66.31
2023-02-15T19:01:16.715Z,65.78
2023-02-15T19:03:44.976Z,65.86
2023-02-15T19:06:16.010Z,66.49
2023-02-15T19:08:45.799Z,68.51
2023-02-15T19:11:20.491Z,66.39
2023-02-15T19:13:48.949Z,65.82
2023-02-15T19:16:35.932Z,67.41
2023-02-15T19:19:02.832Z,65.10
2023-02-15T19:21:31.093Z,64.15
2023-02-15T19:24:07.227Z,65.35
2023-02-15T19:26:45.274Z,64.57
2023-02-15T19:29:14.765Z,64.69
2023-02-15T19:31:41.717Z,65.37
2023-02-15T19:34:16.532Z,65.25
2023-02-15T19:36:44.749Z,65.16
2023-02-15T19:39:27.998Z,65.77
2023-02-15T19:41:59.829Z,66.46
2023-02-15T19:44:27.207Z,68.09
2023-02-15T19:46:59.069Z,68.12
2023-02-15T19:49:25.850Z,68.20
2023-02-15T19:51:53.242Z,69.16
2023-02-15T19:54:27.196Z,67.32
2023-02-15T19:56:54.031Z,68.60
2023-02-15T19:59:32.364Z,68.96
2023-02-15T20:02:04.149Z,68.99
2023-02-15T20:04:31.152Z,69.96
2023-02-15T20:06:59.548Z,69.18
2023-02-15T20:09:30.816Z,69.00
2023-02-15T20:12:00.494Z,68.85
2023-02-15T20:14:29.676Z,68.73
2023-02-15T20:16:56.291Z,68.54
2023-02-15T20:19:22.898Z,69.23
2023-02-15T20:21:59.333Z,68.39
2023-02-15T20:24:28.156Z,67.98
2023-02-15T20:26:55.013Z,68.67
2023-02-15T20:29:21.700Z,69.56
2023-02-15T20:31:49.179Z,69.17
2023-02-15T20:34:15.971Z,70.61
2023-02-15T20:36:43.059Z,70.94
2023-02-15T20:39:25.246Z,70.48
2023-02-15T20:41:51.992Z,69.64
2023-02-15T20:44:29.310Z,69.08
2023-02-15T20:46:59.052Z,70.13
2023-02-15T20:49:27.363Z,71.07
2023-02-15T20:51:55.214Z,69.93
2023-02-15T20:54:29.232Z,70.12
2023-02-15T20:56:58.021Z,71.19
2023-02-15T20:59:26.224Z,70.95
2023-02-15T21:01:55.714Z,71.64
2023-02-15T21:04:24.904Z,69.37
2023-02-15T21:06:51.480Z,69.67
2023-02-15T21:09:20.409Z,70.31
2023-02-15T21:11:48.634Z,70.03
2023-02-15T21:14:19.737Z,70.10
2023-02-15T21:16:46.824Z,69.64
2023-02-15T21:19:17.699Z,70.11
2023-02-15T21:21:44.836Z,70.93
2023-02-15T21:24:29.938Z,70.12
2023-02-15T21:27:02.134Z,70.44
2023-02-15T21:29:29.546Z,69.84
2023-02-15T21:31:58.627Z,71.55
2023-02-15T21:34:25.628Z,69.53
2023-02-15T21:36:54.384Z,69.13
2023-02-15T21:39:22.877Z,69.62
2023-02-15T21:42:09.461Z,69.45
2023-02-15T21:44:54.853Z,68.99
2023-02-15T21:47:40.292Z,70.15
2023-02-15T21:50:27.256Z,68.97
2023-02-15T21:52:56.378Z,69.08
2023-02-15T21:55:24.825Z,68.79
2023-02-15T21:57:51.658Z,69.40
2023-02-15T22:00:18.355Z,69.46
2023-02-15T22:02:45.697Z,68.60
2023-02-15T22:05:17.099Z,69.20
2023-02-15T22:07:44.758Z,69.38
2023-02-15T22:10:11.518Z,70.96
2023-02-15T22:12:38.913Z,70.52
2023-02-15T22:15:05.875Z,70.21
2023-02-15T22:17:34.453Z,68.91
2023-02-15T22:20:02.205Z,67.76
2023-02-15T22:22:34.753Z,66.92
2023-02-15T22:25:01.354Z,66.18
2023-02-15T22:27:28.079Z,65.94
2023-02-15T22:29:55.635Z,64.56
2023-02-15T22:32:23.817Z,64.96
2023-02-15T22:34:55.365Z,65.07
2023-02-15T22:37:22.035Z,63.79
2023-02-15T22:39:51.234Z,63.25
2023-02-15T22:42:27.388Z,63.98
2023-02-15T22:44:54.769Z,63.43
2023-02-15T22:47:23.007Z,63.39
2023-02-15T22:49:49.891Z,63.09
2023-02-15T22:52:16.457Z,63.37
2023-02-15T22:54:43.100Z,62.38
2023-02-15T22:57:16.260Z,62.36
2023-02-15T22:59:42.940Z,62.13
2023-02-15T23:02:13.576Z,62.33
2023-02-15T23:04:40.206Z,62.06
2023-02-15T23:07:14.320Z,62.55
2023-02-15T23:09:43.712Z,63.21
2023-02-15T23:12:51.300Z,63.60
2023-02-15T23:15:17.916Z,62.65
2023-02-15T23:17:44.458Z,62.58
2023-02-15T23:20:15.704Z,62.33
2023-02-15T23:22:43.555Z,62.26
2023-02-15T23:25:11.204Z,62.35
2023-02-15T23:27:57.576Z,62.90
2023-02-15T23:30:24.427Z,62.33
2023-02-15T23:32:52.815Z,63.19
2023-02-15T23:35:20.161Z,61.96
2023-02-15T23:37:46.723Z,62.19
2023-02-15T23:40:33.012Z,62.32
2023-02-15T23:42:59.673Z,62.23
2023-02-15T23:45:26.696Z,62.82
2023-02-15T23:48:11.888Z,62.91
2023-02-15T23:50:38.478Z,62.62
2023-02-15T23:53:05.147Z,62.44
2023-02-15T23:55:36.397Z,62.54
2023-02-15T23:58:04.259Z,61.97
